sensor_id;sensor_type;location;lat;lon;timestamp;P1;durP1;ratioP1;P2;durP2;ratioP2
4430;SDS011;2228;48.140;11.488;2022-10-30T00:00:44;18.55;;;9.15;;
4430;SDS011;2228;48.140;11.488;2022-10-30T00:03:12;21.80;;;9.00;;
4430;SDS011;2228;48.140;11.488;2022-10-30T00:05:40;23.63;;;8.98;;
4430;SDS011;2228;48.140;11.488;2022-10-30T00:08:10;21.35;;;8.63;;
4430;SDS011;2228;48.140;11.488;2022-10-30T00:10:37;21.90;;;9.00;;
4430;SDS011;2228;48.140;11.488;2022-10-30T00:13:05;19.45;;;9.38;;
4430;SDS011;2228;48.140;11.488;2022-10-30T00:15:32;17.23;;;8.15;;
4430;SDS011;2228;48.140;11.488;2022-10-30T00:17:59;17.07;;;7.53;;
4430;SDS011;2228;48.140;11.488;2022-10-30T00:20:26;22.30;;;8.43;;
4430;SDS011;2228;48.140;11.488;2022-10-30T00:22:53;17.83;;;8.50;;
4430;SDS011;2228;48.140;11.488;2022-10-30T00:25:21;17.63;;;8.27;;
4430;SDS011;2228;48.140;11.488;2022-10-30T00:27:48;17.13;;;7.97;;
4430;SDS011;2228;48.140;11.488;2022-10-30T00:30:15;17.77;;;7.90;;
4430;SDS011;2228;48.140;11.488;2022-10-30T00:32:43;18.17;;;7.75;;
4430;SDS011;2228;48.140;11.488;2022-10-30T00:35:10;19.98;;;8.70;;
4430;SDS011;2228;48.140;11.488;2022-10-30T00:37:37;20.25;;;8.32;;
4430;SDS011;2228;48.140;11.488;2022-10-30T00:40:04;16.90;;;7.80;;
4430;SDS011;2228;48.140;11.488;2022-10-30T00:42:33;18.33;;;7.97;;
4430;SDS011;2228;48.140;11.488;2022-10-30T00:45:00;18.67;;;8.55;;
4430;SDS011;2228;48.140;11.488;2022-10-30T00:47:27;20.67;;;8.90;;
4430;SDS011;2228;48.140;11.488;2022-10-30T00:49:58;20.15;;;9.20;;
4430;SDS011;2228;48.140;11.488;2022-10-30T00:52:28;18.88;;;8.25;;
4430;SDS011;2228;48.140;11.488;2022-10-30T00:55:00;23.42;;;8.48;;
4430;SDS011;2228;48.140;11.488;2022-10-30T00:57:31;23.80;;;8.63;;
4430;SDS011;2228;48.140;11.488;2022-10-30T01:00:00;22.33;;;9.80;;
4430;SDS011;2228;48.140;11.488;2022-10-30T01:02:28;16.08;;;7.85;;
4430;SDS011;2228;48.140;11.488;2022-10-30T01:04:55;20.35;;;8.30;;
4430;SDS011;2228;48.140;11.488;2022-10-30T01:07:22;21.43;;;8.80;;
4430;SDS011;2228;48.140;11.488;2022-10-30T01:09:49;17.20;;;8.35;;
4430;SDS011;2228;48.140;11.488;2022-10-30T01:12:16;15.00;;;8.30;;
4430;SDS011;2228;48.140;11.488;2022-10-30T01:14:47;21.70;;;8.90;;
4430;SDS011;2228;48.140;11.488;2022-10-30T01:20:06;17.17;;;7.83;;
4430;SDS011;2228;48.140;11.488;2022-10-30T01:22:49;19.63;;;8.03;;
4430;SDS011;2228;48.140;11.488;2022-10-30T01:25:27;17.40;;;7.70;;
4430;SDS011;2228;48.140;11.488;2022-10-30T01:28:03;14.93;;;7.77;;
4430;SDS011;2228;48.140;11.488;2022-10-30T01:30:45;16.30;;;8.25;;
4430;SDS011;2228;48.140;11.488;2022-10-30T01:33:25;19.50;;;8.77;;
4430;SDS011;2228;48.140;11.488;2022-10-30T01:36:00;15.75;;;8.73;;
4430;SDS011;2228;48.140;11.488;2022-10-30T01:38:33;18.95;;;9.00;;
4430;SDS011;2228;48.140;11.488;2022-10-30T01:41:04;23.38;;;10.20;;
4430;SDS011;2228;48.140;11.488;2022-10-30T01:43:31;18.25;;;9.90;;
4430;SDS011;2228;48.140;11.488;2022-10-30T01:49:18;23.30;;;11.10;;
4430;SDS011;2228;48.140;11.488;2022-10-30T01:51:58;24.40;;;10.90;;
4430;SDS011;2228;48.140;11.488;2022-10-30T01:54:36;22.70;;;10.45;;
4430;SDS011;2228;48.140;11.488;2022-10-30T01:57:07;28.42;;;11.40;;
4430;SDS011;2228;48.140;11.488;2022-10-30T01:59:41;19.15;;;10.32;;
4430;SDS011;2228;48.140;11.488;2022-10-30T02:02:13;28.03;;;11.03;;
4430;SDS011;2228;48.140;11.488;2022-10-30T02:04:41;22.95;;;10.68;;
4430;SDS011;2228;48.140;11.488;2022-10-30T02:07:08;20.85;;;10.57;;
4430;SDS011;2228;48.140;11.488;2022-10-30T02:09:35;21.75;;;10.93;;
4430;SDS011;2228;48.140;11.488;2022-10-30T02:12:03;23.05;;;9.73;;
4430;SDS011;2228;48.140;11.488;2022-10-30T02:14:31;21.60;;;9.32;;
4430;SDS011;2228;48.140;11.488;2022-10-30T02:17:01;23.27;;;10.20;;
4430;SDS011;2228;48.140;11.488;2022-10-30T02:19:31;27.65;;;10.50;;
4430;SDS011;2228;48.140;11.488;2022-10-30T02:21:59;19.27;;;9.68;;
4430;SDS011;2228;48.140;11.488;2022-10-30T02:24:26;20.88;;;8.70;;
4430;SDS011;2228;48.140;11.488;2022-10-30T02:26:53;17.38;;;9.48;;
4430;SDS011;2228;48.140;11.488;2022-10-30T02:29:20;21.15;;;9.13;;
4430;SDS011;2228;48.140;11.488;2022-10-30T02:31:47;31.55;;;10.75;;
4430;SDS011;2228;48.140;11.488;2022-10-30T02:34:14;22.03;;;10.87;;
4430;SDS011;2228;48.140;11.488;2022-10-30T02:36:41;23.23;;;9.60;;
4430;SDS011;2228;48.140;11.488;2022-10-30T02:39:09;22.38;;;9.85;;
4430;SDS011;2228;48.140;11.488;2022-10-30T02:41:36;22.40;;;10.20;;
4430;SDS011;2228;48.140;11.488;2022-10-30T02:44:03;21.80;;;9.90;;
4430;SDS011;2228;48.140;11.488;2022-10-30T02:46:30;22.42;;;8.90;;
4430;SDS011;2228;48.140;11.488;2022-10-30T02:48:57;24.87;;;8.93;;
4430;SDS011;2228;48.140;11.488;2022-10-30T02:51:24;24.40;;;9.40;;
4430;SDS011;2228;48.140;11.488;2022-10-30T02:53:51;28.30;;;10.15;;
4430;SDS011;2228;48.140;11.488;2022-10-30T02:56:19;21.88;;;9.82;;
4430;SDS011;2228;48.140;11.488;2022-10-30T02:58:46;29.90;;;10.65;;
4430;SDS011;2228;48.140;11.488;2022-10-30T03:01:13;21.15;;;9.85;;
4430;SDS011;2228;48.140;11.488;2022-10-30T03:03:42;19.58;;;9.88;;
4430;SDS011;2228;48.140;11.488;2022-10-30T03:06:10;25.83;;;9.40;;
4430;SDS011;2228;48.140;11.488;2022-10-30T03:08:39;19.13;;;9.32;;
4430;SDS011;2228;48.140;11.488;2022-10-30T03:11:07;24.80;;;9.90;;
4430;SDS011;2228;48.140;11.488;2022-10-30T03:13:36;21.52;;;8.75;;
4430;SDS011;2228;48.140;11.488;2022-10-30T03:16:06;19.63;;;9.20;;
4430;SDS011;2228;48.140;11.488;2022-10-30T03:18:34;20.83;;;10.37;;
4430;SDS011;2228;48.140;11.488;2022-10-30T03:21:02;23.80;;;10.07;;
4430;SDS011;2228;48.140;11.488;2022-10-30T03:23:31;25.38;;;11.10;;
4430;SDS011;2228;48.140;11.488;2022-10-30T03:25:58;26.92;;;9.90;;
4430;SDS011;2228;48.140;11.488;2022-10-30T03:28:26;24.63;;;10.25;;
4430;SDS011;2228;48.140;11.488;2022-10-30T03:30:59;23.08;;;10.60;;
4430;SDS011;2228;48.140;11.488;2022-10-30T03:33:28;20.53;;;9.87;;
4430;SDS011;2228;48.140;11.488;2022-10-30T03:35:55;24.55;;;10.02;;
4430;SDS011;2228;48.140;11.488;2022-10-30T03:38:22;20.77;;;9.90;;
4430;SDS011;2228;48.140;11.488;2022-10-30T03:40:49;21.13;;;10.05;;
4430;SDS011;2228;48.140;11.488;2022-10-30T03:43:17;20.87;;;9.83;;
4430;SDS011;2228;48.140;11.488;2022-10-30T03:45:47;17.63;;;9.20;;
4430;SDS011;2228;48.140;11.488;2022-10-30T03:48:16;21.00;;;10.10;;
4430;SDS011;2228;48.140;11.488;2022-10-30T03:50:44;21.13;;;9.83;;
4430;SDS011;2228;48.140;11.488;2022-10-30T03:53:12;18.38;;;8.70;;
4430;SDS011;2228;48.140;11.488;2022-10-30T03:55:39;17.97;;;8.47;;
4430;SDS011;2228;48.140;11.488;2022-10-30T03:58:06;20.53;;;9.03;;
4430;SDS011;2228;48.140;11.488;2022-10-30T04:00:33;18.30;;;9.13;;
4430;SDS011;2228;48.140;11.488;2022-10-30T04:03:01;18.08;;;8.43;;
4430;SDS011;2228;48.140;11.488;2022-10-30T04:05:32;25.40;;;9.98;;
4430;SDS011;2228;48.140;11.488;2022-10-30T04:08:01;18.15;;;8.90;;
4430;SDS011;2228;48.140;11.488;2022-10-30T04:10:30;22.07;;;9.97;;
4430;SDS011;2228;48.140;11.488;2022-10-30T04:13:00;20.80;;;8.98;;
4430;SDS011;2228;48.140;11.488;2022-10-30T04:15:27;18.90;;;7.60;;
4430;SDS011;2228;48.140;11.488;2022-10-30T04:17:54;21.60;;;8.68;;
4430;SDS011;2228;48.140;11.488;2022-10-30T04:20:22;18.00;;;8.13;;
4430;SDS011;2228;48.140;11.488;2022-10-30T04:22:55;18.02;;;7.90;;
4430;SDS011;2228;48.140;11.488;2022-10-30T04:25:23;21.80;;;9.10;;
4430;SDS011;2228;48.140;11.488;2022-10-30T04:27:51;25.83;;;11.00;;
4430;SDS011;2228;48.140;11.488;2022-10-30T04:30:18;26.67;;;10.35;;
4430;SDS011;2228;48.140;11.488;2022-10-30T04:32:46;23.60;;;10.70;;
4430;SDS011;2228;48.140;11.488;2022-10-30T04:35:13;25.83;;;9.80;;
4430;SDS011;2228;48.140;11.488;2022-10-30T04:37:41;19.15;;;8.63;;
4430;SDS011;2228;48.140;11.488;2022-10-30T04:40:09;21.20;;;8.90;;
4430;SDS011;2228;48.140;11.488;2022-10-30T04:42:37;18.30;;;8.60;;
4430;SDS011;2228;48.140;11.488;2022-10-30T04:45:04;25.65;;;9.25;;
4430;SDS011;2228;48.140;11.488;2022-10-30T04:47:32;23.75;;;10.13;;
4430;SDS011;2228;48.140;11.488;2022-10-30T04:49:59;20.98;;;9.60;;
4430;SDS011;2228;48.140;11.488;2022-10-30T04:52:26;23.92;;;8.88;;
4430;SDS011;2228;48.140;11.488;2022-10-30T04:54:53;24.00;;;9.75;;
4430;SDS011;2228;48.140;11.488;2022-10-30T04:57:21;23.73;;;9.77;;
4430;SDS011;2228;48.140;11.488;2022-10-30T04:59:48;24.48;;;9.50;;
4430;SDS011;2228;48.140;11.488;2022-10-30T05:02:15;18.63;;;8.80;;
4430;SDS011;2228;48.140;11.488;2022-10-30T05:04:43;19.42;;;8.55;;
4430;SDS011;2228;48.140;11.488;2022-10-30T05:07:10;20.95;;;9.27;;
4430;SDS011;2228;48.140;11.488;2022-10-30T05:09:37;23.75;;;9.73;;
4430;SDS011;2228;48.140;11.488;2022-10-30T05:12:04;18.92;;;8.55;;
4430;SDS011;2228;48.140;11.488;2022-10-30T05:14:33;20.88;;;9.30;;
4430;SDS011;2228;48.140;11.488;2022-10-30T05:17:00;20.27;;;9.35;;
4430;SDS011;2228;48.140;11.488;2022-10-30T05:19:26;16.60;;;8.35;;
4430;SDS011;2228;48.140;11.488;2022-10-30T05:21:53;18.05;;;9.15;;
4430;SDS011;2228;48.140;11.488;2022-10-30T05:24:20;17.55;;;8.73;;
4430;SDS011;2228;48.140;11.488;2022-10-30T05:26:47;20.37;;;8.50;;
4430;SDS011;2228;48.140;11.488;2022-10-30T05:29:14;20.58;;;10.02;;
4430;SDS011;2228;48.140;11.488;2022-10-30T05:31:42;22.48;;;8.10;;
4430;SDS011;2228;48.140;11.488;2022-10-30T05:34:09;21.27;;;8.57;;
4430;SDS011;2228;48.140;11.488;2022-10-30T05:36:36;19.40;;;8.60;;
4430;SDS011;2228;48.140;11.488;2022-10-30T05:39:03;22.08;;;9.00;;
4430;SDS011;2228;48.140;11.488;2022-10-30T05:41:29;23.70;;;9.07;;
4430;SDS011;2228;48.140;11.488;2022-10-30T05:43:56;25.45;;;9.85;;
4430;SDS011;2228;48.140;11.488;2022-10-30T05:46:23;23.17;;;9.55;;
4430;SDS011;2228;48.140;11.488;2022-10-30T05:48:51;18.33;;;8.50;;
4430;SDS011;2228;48.140;11.488;2022-10-30T05:51:18;16.00;;;7.93;;
4430;SDS011;2228;48.140;11.488;2022-10-30T05:53:46;28.65;;;10.30;;
4430;SDS011;2228;48.140;11.488;2022-10-30T05:56:13;21.67;;;8.38;;
4430;SDS011;2228;48.140;11.488;2022-10-30T05:58:40;22.15;;;9.50;;
4430;SDS011;2228;48.140;11.488;2022-10-30T06:01:07;18.65;;;8.50;;
4430;SDS011;2228;48.140;11.488;2022-10-30T06:03:34;17.92;;;8.93;;
4430;SDS011;2228;48.140;11.488;2022-10-30T06:06:03;23.80;;;9.25;;
4430;SDS011;2228;48.140;11.488;2022-10-30T06:08:30;16.58;;;7.93;;
4430;SDS011;2228;48.140;11.488;2022-10-30T06:10:57;23.33;;;8.18;;
4430;SDS011;2228;48.140;11.488;2022-10-30T06:13:23;18.38;;;8.23;;
4430;SDS011;2228;48.140;11.488;2022-10-30T06:15:52;17.48;;;8.02;;
4430;SDS011;2228;48.140;11.488;2022-10-30T06:18:20;14.60;;;7.68;;
4430;SDS011;2228;48.140;11.488;2022-10-30T06:20:47;16.65;;;8.07;;
4430;SDS011;2228;48.140;11.488;2022-10-30T06:23:15;20.10;;;8.30;;
4430;SDS011;2228;48.140;11.488;2022-10-30T06:25:42;20.40;;;7.95;;
4430;SDS011;2228;48.140;11.488;2022-10-30T06:28:09;21.30;;;8.32;;
4430;SDS011;2228;48.140;11.488;2022-10-30T06:30:37;18.73;;;8.30;;
4430;SDS011;2228;48.140;11.488;2022-10-30T06:33:04;18.25;;;6.65;;
4430;SDS011;2228;48.140;11.488;2022-10-30T06:35:31;17.50;;;7.68;;
4430;SDS011;2228;48.140;11.488;2022-10-30T06:37:58;25.47;;;8.33;;
4430;SDS011;2228;48.140;11.488;2022-10-30T06:40:27;18.40;;;7.23;;
4430;SDS011;2228;48.140;11.488;2022-10-30T06:42:54;19.83;;;7.10;;
4430;SDS011;2228;48.140;11.488;2022-10-30T06:45:22;17.88;;;6.72;;
4430;SDS011;2228;48.140;11.488;2022-10-30T06:47:49;12.95;;;6.30;;
4430;SDS011;2228;48.140;11.488;2022-10-30T06:50:17;15.68;;;6.80;;
4430;SDS011;2228;48.140;11.488;2022-10-30T06:52:46;14.45;;;6.55;;
4430;SDS011;2228;48.140;11.488;2022-10-30T06:55:13;15.70;;;6.03;;
4430;SDS011;2228;48.140;11.488;2022-10-30T06:57:42;11.95;;;5.22;;
4430;SDS011;2228;48.140;11.488;2022-10-30T07:00:09;14.70;;;5.75;;
4430;SDS011;2228;48.140;11.488;2022-10-30T07:02:37;16.75;;;6.30;;
4430;SDS011;2228;48.140;11.488;2022-10-30T07:05:04;13.13;;;5.35;;
4430;SDS011;2228;48.140;11.488;2022-10-30T07:07:31;14.27;;;5.90;;
4430;SDS011;2228;48.140;11.488;2022-10-30T07:09:58;13.65;;;6.75;;
4430;SDS011;2228;48.140;11.488;2022-10-30T07:12:26;19.63;;;7.45;;
4430;SDS011;2228;48.140;11.488;2022-10-30T07:14:54;22.27;;;6.77;;
4430;SDS011;2228;48.140;11.488;2022-10-30T07:17:21;16.95;;;7.05;;
4430;SDS011;2228;48.140;11.488;2022-10-30T07:19:48;14.88;;;5.80;;
4430;SDS011;2228;48.140;11.488;2022-10-30T07:22:14;15.80;;;6.68;;
4430;SDS011;2228;48.140;11.488;2022-10-30T07:24:41;11.45;;;5.70;;
4430;SDS011;2228;48.140;11.488;2022-10-30T07:27:08;15.13;;;6.27;;
4430;SDS011;2228;48.140;11.488;2022-10-30T07:29:35;15.20;;;6.05;;
4430;SDS011;2228;48.140;11.488;2022-10-30T07:32:03;12.35;;;5.40;;
4430;SDS011;2228;48.140;11.488;2022-10-30T07:34:30;15.20;;;5.18;;
4430;SDS011;2228;48.140;11.488;2022-10-30T07:36:58;13.30;;;4.97;;
4430;SDS011;2228;48.140;11.488;2022-10-30T07:39:25;14.88;;;5.15;;
4430;SDS011;2228;48.140;11.488;2022-10-30T07:41:52;9.15;;;4.13;;
4430;SDS011;2228;48.140;11.488;2022-10-30T07:44:19;9.43;;;4.20;;
4430;SDS011;2228;48.140;11.488;2022-10-30T07:46:46;12.55;;;4.18;;
4430;SDS011;2228;48.140;11.488;2022-10-30T07:49:14;19.80;;;5.10;;
4430;SDS011;2228;48.140;11.488;2022-10-30T07:51:41;14.25;;;4.38;;
4430;SDS011;2228;48.140;11.488;2022-10-30T07:54:08;15.00;;;4.73;;
4430;SDS011;2228;48.140;11.488;2022-10-30T07:56:35;12.20;;;4.60;;
4430;SDS011;2228;48.140;11.488;2022-10-30T07:59:01;13.23;;;4.10;;
4430;SDS011;2228;48.140;11.488;2022-10-30T08:01:28;11.13;;;3.80;;
4430;SDS011;2228;48.140;11.488;2022-10-30T08:03:55;9.40;;;3.85;;
4430;SDS011;2228;48.140;11.488;2022-10-30T08:06:23;11.93;;;4.30;;
4430;SDS011;2228;48.140;11.488;2022-10-30T08:08:50;7.95;;;3.53;;
4430;SDS011;2228;48.140;11.488;2022-10-30T08:11:17;13.63;;;4.22;;
4430;SDS011;2228;48.140;11.488;2022-10-30T08:13:44;11.30;;;3.77;;
4430;SDS011;2228;48.140;11.488;2022-10-30T08:16:11;11.20;;;3.40;;
4430;SDS011;2228;48.140;11.488;2022-10-30T08:18:38;9.95;;;4.00;;
4430;SDS011;2228;48.140;11.488;2022-10-30T08:21:06;8.45;;;3.20;;
4430;SDS011;2228;48.140;11.488;2022-10-30T08:23:34;7.43;;;3.30;;
4430;SDS011;2228;48.140;11.488;2022-10-30T08:26:01;10.53;;;3.90;;
4430;SDS011;2228;48.140;11.488;2022-10-30T08:28:29;12.35;;;3.20;;
4430;SDS011;2228;48.140;11.488;2022-10-30T08:30:56;11.13;;;3.15;;
4430;SDS011;2228;48.140;11.488;2022-10-30T08:33:23;12.48;;;3.70;;
4430;SDS011;2228;48.140;11.488;2022-10-30T08:35:51;12.68;;;3.67;;
4430;SDS011;2228;48.140;11.488;2022-10-30T08:38:20;14.77;;;3.50;;
4430;SDS011;2228;48.140;11.488;2022-10-30T08:40:49;9.02;;;3.10;;
4430;SDS011;2228;48.140;11.488;2022-10-30T08:43:16;10.77;;;3.10;;
4430;SDS011;2228;48.140;11.488;2022-10-30T08:45:44;11.85;;;3.83;;
4430;SDS011;2228;48.140;11.488;2022-10-30T08:48:12;6.88;;;2.90;;
4430;SDS011;2228;48.140;11.488;2022-10-30T08:50:40;16.20;;;3.50;;
4430;SDS011;2228;48.140;11.488;2022-10-30T08:53:09;17.73;;;3.67;;
4430;SDS011;2228;48.140;11.488;2022-10-30T08:55:37;14.90;;;2.95;;
4430;SDS011;2228;48.140;11.488;2022-10-30T08:58:05;12.40;;;3.70;;
4430;SDS011;2228;48.140;11.488;2022-10-30T09:00:32;14.20;;;3.10;;
4430;SDS011;2228;48.140;11.488;2022-10-30T09:02:59;11.20;;;3.20;;
4430;SDS011;2228;48.140;11.488;2022-10-30T09:05:27;11.47;;;3.70;;
4430;SDS011;2228;48.140;11.488;2022-10-30T09:07:54;5.20;;;2.30;;
4430;SDS011;2228;48.140;11.488;2022-10-30T09:10:23;9.05;;;3.15;;
4430;SDS011;2228;48.140;11.488;2022-10-30T09:12:52;13.00;;;3.40;;
4430;SDS011;2228;48.140;11.488;2022-10-30T09:15:21;10.50;;;2.90;;
4430;SDS011;2228;48.140;11.488;2022-10-30T09:17:53;8.90;;;2.40;;
4430;SDS011;2228;48.140;11.488;2022-10-30T09:20:21;9.32;;;2.63;;
4430;SDS011;2228;48.140;11.488;2022-10-30T09:22:48;10.63;;;2.90;;
4430;SDS011;2228;48.140;11.488;2022-10-30T09:25:15;8.63;;;2.80;;
4430;SDS011;2228;48.140;11.488;2022-10-30T09:27:42;11.88;;;2.65;;
4430;SDS011;2228;48.140;11.488;2022-10-30T09:30:09;7.77;;;2.90;;
4430;SDS011;2228;48.140;11.488;2022-10-30T09:32:38;12.13;;;3.17;;
4430;SDS011;2228;48.140;11.488;2022-10-30T09:35:06;10.02;;;2.60;;
4430;SDS011;2228;48.140;11.488;2022-10-30T09:40:00;17.17;;;3.50;;
4430;SDS011;2228;48.140;11.488;2022-10-30T09:42:32;10.67;;;3.17;;
4430;SDS011;2228;48.140;11.488;2022-10-30T09:45:17;7.63;;;3.20;;
4430;SDS011;2228;48.140;11.488;2022-10-30T09:48:21;12.50;;;3.17;;
4430;SDS011;2228;48.140;11.488;2022-10-30T09:51:08;11.10;;;2.75;;
4430;SDS011;2228;48.140;11.488;2022-10-30T09:53:48;9.80;;;3.58;;
4430;SDS011;2228;48.140;11.488;2022-10-30T09:56:26;11.77;;;3.45;;
4430;SDS011;2228;48.140;11.488;2022-10-30T09:59:00;11.50;;;3.60;;
4430;SDS011;2228;48.140;11.488;2022-10-30T10:01:35;11.43;;;3.00;;
4430;SDS011;2228;48.140;11.488;2022-10-30T10:04:14;21.63;;;4.00;;
4430;SDS011;2228;48.140;11.488;2022-10-30T10:06:49;10.45;;;3.10;;
4430;SDS011;2228;48.140;11.488;2022-10-30T10:09:22;15.75;;;3.47;;
4430;SDS011;2228;48.140;11.488;2022-10-30T10:11:52;11.05;;;3.20;;
4430;SDS011;2228;48.140;11.488;2022-10-30T10:14:25;10.90;;;3.75;;
4430;SDS011;2228;48.140;11.488;2022-10-30T10:16:54;13.82;;;3.60;;
4430;SDS011;2228;48.140;11.488;2022-10-30T10:19:27;11.88;;;3.60;;
4430;SDS011;2228;48.140;11.488;2022-10-30T10:21:58;16.60;;;3.30;;
4430;SDS011;2228;48.140;11.488;2022-10-30T10:24:27;9.20;;;3.40;;
4430;SDS011;2228;48.140;11.488;2022-10-30T10:26:59;15.47;;;3.83;;
4430;SDS011;2228;48.140;11.488;2022-10-30T10:29:39;12.88;;;4.55;;
4430;SDS011;2228;48.140;11.488;2022-10-30T10:32:18;14.05;;;3.45;;
4430;SDS011;2228;48.140;11.488;2022-10-30T10:35:06;11.20;;;3.70;;
4430;SDS011;2228;48.140;11.488;2022-10-30T10:37:47;13.40;;;3.42;;
4430;SDS011;2228;48.140;11.488;2022-10-30T10:40:20;9.60;;;2.90;;
4430;SDS011;2228;48.140;11.488;2022-10-30T10:42:57;12.70;;;3.50;;
4430;SDS011;2228;48.140;11.488;2022-10-30T10:45:38;11.68;;;3.00;;
4430;SDS011;2228;48.140;11.488;2022-10-30T10:48:19;10.90;;;3.35;;
4430;SDS011;2228;48.140;11.488;2022-10-30T10:51:08;13.10;;;3.55;;
4430;SDS011;2228;48.140;11.488;2022-10-30T10:53:39;13.30;;;2.88;;
4430;SDS011;2228;48.140;11.488;2022-10-30T10:56:11;12.95;;;3.10;;
4430;SDS011;2228;48.140;11.488;2022-10-30T10:58:42;8.23;;;3.20;;
4430;SDS011;2228;48.140;11.488;2022-10-30T11:01:13;9.30;;;3.10;;
4430;SDS011;2228;48.140;11.488;2022-10-30T11:03:45;12.23;;;3.53;;
4430;SDS011;2228;48.140;11.488;2022-10-30T11:06:21;10.63;;;3.60;;
4430;SDS011;2228;48.140;11.488;2022-10-30T11:08:51;8.48;;;3.00;;
4430;SDS011;2228;48.140;11.488;2022-10-30T11:11:20;18.27;;;4.05;;
4430;SDS011;2228;48.140;11.488;2022-10-30T11:13:47;10.18;;;3.50;;
4430;SDS011;2228;48.140;11.488;2022-10-30T11:16:17;13.95;;;3.33;;
4430;SDS011;2228;48.140;11.488;2022-10-30T11:18:51;10.52;;;3.45;;
4430;SDS011;2228;48.140;11.488;2022-10-30T11:21:23;13.18;;;3.42;;
4430;SDS011;2228;48.140;11.488;2022-10-30T11:23:51;11.95;;;3.45;;
4430;SDS011;2228;48.140;11.488;2022-10-30T11:26:31;12.18;;;3.50;;
4430;SDS011;2228;48.140;11.488;2022-10-30T11:29:02;13.10;;;3.75;;
4430;SDS011;2228;48.140;11.488;2022-10-30T11:31:31;17.35;;;3.53;;
4430;SDS011;2228;48.140;11.488;2022-10-30T11:34:19;9.80;;;3.22;;
4430;SDS011;2228;48.140;11.488;2022-10-30T11:36:51;13.13;;;2.80;;
4430;SDS011;2228;48.140;11.488;2022-10-30T11:39:20;15.82;;;3.42;;
4430;SDS011;2228;48.140;11.488;2022-10-30T11:41:48;6.70;;;2.70;;
4430;SDS011;2228;48.140;11.488;2022-10-30T11:44:22;10.93;;;3.05;;
4430;SDS011;2228;48.140;11.488;2022-10-30T11:46:52;10.48;;;2.75;;
4430;SDS011;2228;48.140;11.488;2022-10-30T11:49:23;13.63;;;3.50;;
4430;SDS011;2228;48.140;11.488;2022-10-30T11:51:54;8.40;;;3.13;;
4430;SDS011;2228;48.140;11.488;2022-10-30T11:54:21;10.60;;;3.30;;
4430;SDS011;2228;48.140;11.488;2022-10-30T11:56:48;7.43;;;3.20;;
4430;SDS011;2228;48.140;11.488;2022-10-30T11:59:17;14.48;;;3.58;;
4430;SDS011;2228;48.140;11.488;2022-10-30T12:01:56;17.55;;;5.22;;
4430;SDS011;2228;48.140;11.488;2022-10-30T12:04:25;20.50;;;6.80;;
4430;SDS011;2228;48.140;11.488;2022-10-30T12:06:57;16.20;;;5.20;;
4430;SDS011;2228;48.140;11.488;2022-10-30T12:09:40;7.53;;;3.63;;
4430;SDS011;2228;48.140;11.488;2022-10-30T12:12:11;11.45;;;3.28;;
4430;SDS011;2228;48.140;11.488;2022-10-30T12:14:46;11.43;;;3.30;;
4430;SDS011;2228;48.140;11.488;2022-10-30T12:17:13;10.48;;;3.50;;
4430;SDS011;2228;48.140;11.488;2022-10-30T12:19:44;8.55;;;3.40;;
4430;SDS011;2228;48.140;11.488;2022-10-30T12:22:24;8.95;;;2.85;;
4430;SDS011;2228;48.140;11.488;2022-10-30T12:24:54;9.37;;;2.90;;
4430;SDS011;2228;48.140;11.488;2022-10-30T12:27:22;7.97;;;3.13;;
4430;SDS011;2228;48.140;11.488;2022-10-30T12:29:56;7.93;;;2.60;;
4430;SDS011;2228;48.140;11.488;2022-10-30T12:32:35;8.13;;;2.92;;
4430;SDS011;2228;48.140;11.488;2022-10-30T12:35:08;8.27;;;2.92;;
4430;SDS011;2228;48.140;11.488;2022-10-30T12:37:49;10.02;;;2.90;;
4430;SDS011;2228;48.140;11.488;2022-10-30T12:40:20;12.07;;;2.80;;
4430;SDS011;2228;48.140;11.488;2022-10-30T12:42:53;9.30;;;3.13;;
4430;SDS011;2228;48.140;11.488;2022-10-30T12:45:27;9.48;;;2.70;;
4430;SDS011;2228;48.140;11.488;2022-10-30T12:48:00;10.15;;;2.95;;
4430;SDS011;2228;48.140;11.488;2022-10-30T12:50:34;9.43;;;3.40;;
4430;SDS011;2228;48.140;11.488;2022-10-30T12:53:10;9.55;;;3.10;;
4430;SDS011;2228;48.140;11.488;2022-10-30T12:55:48;9.60;;;3.30;;
4430;SDS011;2228;48.140;11.488;2022-10-30T12:58:20;14.75;;;3.30;;
4430;SDS011;2228;48.140;11.488;2022-10-30T13:00:55;11.85;;;3.13;;
4430;SDS011;2228;48.140;11.488;2022-10-30T13:03:28;10.52;;;2.83;;
4430;SDS011;2228;48.140;11.488;2022-10-30T13:06:00;11.05;;;3.05;;
4430;SDS011;2228;48.140;11.488;2022-10-30T13:08:33;9.50;;;3.17;;
4430;SDS011;2228;48.140;11.488;2022-10-30T13:11:06;15.10;;;3.40;;
4430;SDS011;2228;48.140;11.488;2022-10-30T13:13:41;10.73;;;3.03;;
4430;SDS011;2228;48.140;11.488;2022-10-30T13:16:13;10.02;;;3.30;;
4430;SDS011;2228;48.140;11.488;2022-10-30T13:18:54;8.87;;;3.27;;
4430;SDS011;2228;48.140;11.488;2022-10-30T13:21:23;10.70;;;3.38;;
4430;SDS011;2228;48.140;11.488;2022-10-30T13:23:59;11.05;;;3.60;;
4430;SDS011;2228;48.140;11.488;2022-10-30T13:26:29;10.80;;;3.10;;
4430;SDS011;2228;48.140;11.488;2022-10-30T13:29:05;11.38;;;3.50;;
4430;SDS011;2228;48.140;11.488;2022-10-30T13:31:42;15.27;;;3.40;;
4430;SDS011;2228;48.140;11.488;2022-10-30T13:34:29;6.43;;;2.53;;
4430;SDS011;2228;48.140;11.488;2022-10-30T13:37:04;8.77;;;2.70;;
4430;SDS011;2228;48.140;11.488;2022-10-30T13:39:38;10.27;;;2.70;;
4430;SDS011;2228;48.140;11.488;2022-10-30T13:42:20;7.60;;;2.78;;
4430;SDS011;2228;48.140;11.488;2022-10-30T13:45:10;11.40;;;2.90;;
4430;SDS011;2228;48.140;11.488;2022-10-30T13:47:54;6.82;;;2.72;;
4430;SDS011;2228;48.140;11.488;2022-10-30T13:50:31;11.75;;;2.88;;
4430;SDS011;2228;48.140;11.488;2022-10-30T13:53:10;11.65;;;3.25;;
4430;SDS011;2228;48.140;11.488;2022-10-30T13:55:41;9.73;;;2.92;;
4430;SDS011;2228;48.140;11.488;2022-10-30T13:58:11;13.10;;;3.53;;
4430;SDS011;2228;48.140;11.488;2022-10-30T14:00:51;7.50;;;2.65;;
4430;SDS011;2228;48.140;11.488;2022-10-30T14:03:26;11.20;;;3.17;;
4430;SDS011;2228;48.140;11.488;2022-10-30T14:06:03;11.43;;;3.20;;
4430;SDS011;2228;48.140;11.488;2022-10-30T14:08:39;10.55;;;2.92;;
4430;SDS011;2228;48.140;11.488;2022-10-30T14:11:12;6.82;;;2.90;;
4430;SDS011;2228;48.140;11.488;2022-10-30T14:13:43;13.48;;;3.90;;
4430;SDS011;2228;48.140;11.488;2022-10-30T14:19:04;11.65;;;4.00;;
4430;SDS011;2228;48.140;11.488;2022-10-30T14:21:38;9.47;;;3.60;;
4430;SDS011;2228;48.140;11.488;2022-10-30T14:24:14;11.27;;;3.30;;
4430;SDS011;2228;48.140;11.488;2022-10-30T14:26:48;10.60;;;3.33;;
4430;SDS011;2228;48.140;11.488;2022-10-30T14:29:36;12.25;;;3.10;;
4430;SDS011;2228;48.140;11.488;2022-10-30T14:38:37;11.35;;;3.50;;
4430;SDS011;2228;48.140;11.488;2022-10-30T14:41:11;15.43;;;3.50;;
4430;SDS011;2228;48.140;11.488;2022-10-30T14:44:05;11.50;;;4.15;;
4430;SDS011;2228;48.140;11.488;2022-10-30T14:46:47;14.93;;;3.92;;
4430;SDS011;2228;48.140;11.488;2022-10-30T14:49:27;12.52;;;3.53;;
4430;SDS011;2228;48.140;11.488;2022-10-30T14:52:12;16.67;;;4.10;;
4430;SDS011;2228;48.140;11.488;2022-10-30T14:54:46;11.55;;;3.22;;
4430;SDS011;2228;48.140;11.488;2022-10-30T14:57:19;8.77;;;3.53;;
4430;SDS011;2228;48.140;11.488;2022-10-30T14:59:47;13.50;;;3.80;;
4430;SDS011;2228;48.140;11.488;2022-10-30T15:02:22;9.60;;;3.40;;
4430;SDS011;2228;48.140;11.488;2022-10-30T15:08:02;11.05;;;3.85;;
4430;SDS011;2228;48.140;11.488;2022-10-30T15:10:38;11.38;;;3.67;;
4430;SDS011;2228;48.140;11.488;2022-10-30T15:13:16;10.88;;;4.18;;
4430;SDS011;2228;48.140;11.488;2022-10-30T15:15:45;15.02;;;4.40;;
4430;SDS011;2228;48.140;11.488;2022-10-30T15:18:23;10.30;;;3.70;;
4430;SDS011;2228;48.140;11.488;2022-10-30T15:20:50;14.32;;;4.28;;
4430;SDS011;2228;48.140;11.488;2022-10-30T15:23:20;8.55;;;4.28;;
4430;SDS011;2228;48.140;11.488;2022-10-30T15:25:52;11.77;;;4.10;;
4430;SDS011;2228;48.140;11.488;2022-10-30T15:28:21;13.15;;;3.85;;